sensor_id;sensor_type;location;lat;lon;timestamp;P1;durP1;ratioP1;P2;durP2;ratioP2
8327;SDS011;4201;48.754;8.864;2024-02-26T00:00:00;7.83;;;5.50;;
8327;SDS011;4201;48.754;8.864;2024-02-26T00:02:27;12.50;;;5.60;;
8327;SDS011;4201;48.754;8.864;2024-02-26T00:04:53;9.53;;;5.50;;
8327;SDS011;4201;48.754;8.864;2024-02-26T00:07:19;8.43;;;4.90;;
8327;SDS011;4201;48.754;8.864;2024-02-26T00:09:45;9.27;;;5.80;;
8327;SDS011;4201;48.754;8.864;2024-02-26T00:12:12;8.23;;;5.00;;
8327;SDS011;4201;48.754;8.864;2024-02-26T00:14:38;9.73;;;5.50;;
8327;SDS011;4201;48.754;8.864;2024-02-26T00:17:05;11.40;;;5.57;;
8327;SDS011;4201;48.754;8.864;2024-02-26T00:19:32;8.23;;;4.83;;
8327;SDS011;4201;48.754;8.864;2024-02-26T00:21:58;5.83;;;4.50;;
8327;SDS011;4201;48.754;8.864;2024-02-26T00:24:24;10.63;;;4.87;;
8327;SDS011;4201;48.754;8.864;2024-02-26T00:26:51;9.50;;;5.30;;
8327;SDS011;4201;48.754;8.864;2024-02-26T00:29:19;7.23;;;4.67;;
8327;SDS011;4201;48.754;8.864;2024-02-26T00:31:46;11.07;;;5.77;;
8327;SDS011;4201;48.754;8.864;2024-02-26T00:34:14;6.77;;;4.70;;
8327;SDS011;4201;48.754;8.864;2024-02-26T00:36:40;7.00;;;4.50;;
8327;SDS011;4201;48.754;8.864;2024-02-26T00:39:06;7.20;;;4.17;;
8327;SDS011;4201;48.754;8.864;2024-02-26T00:41:32;6.90;;;4.40;;
8327;SDS011;4201;48.754;8.864;2024-02-26T00:43:59;5.00;;;3.03;;
8327;SDS011;4201;48.754;8.864;2024-02-26T00:46:25;7.10;;;3.20;;
8327;SDS011;4201;48.754;8.864;2024-02-26T00:48:51;6.13;;;3.37;;
8327;SDS011;4201;48.754;8.864;2024-02-26T00:51:19;5.67;;;4.27;;
8327;SDS011;4201;48.754;8.864;2024-02-26T00:53:45;5.33;;;3.53;;
8327;SDS011;4201;48.754;8.864;2024-02-26T00:56:11;5.80;;;3.40;;
8327;SDS011;4201;48.754;8.864;2024-02-26T00:58:38;6.93;;;4.73;;
8327;SDS011;4201;48.754;8.864;2024-02-26T01:01:04;6.90;;;3.50;;
8327;SDS011;4201;48.754;8.864;2024-02-26T01:03:30;6.30;;;4.00;;
8327;SDS011;4201;48.754;8.864;2024-02-26T01:05:56;7.03;;;3.60;;
8327;SDS011;4201;48.754;8.864;2024-02-26T01:08:24;6.27;;;3.70;;
8327;SDS011;4201;48.754;8.864;2024-02-26T01:10:50;6.03;;;3.60;;
8327;SDS011;4201;48.754;8.864;2024-02-26T01:13:16;8.03;;;4.00;;
8327;SDS011;4201;48.754;8.864;2024-02-26T01:15:43;6.60;;;3.90;;
8327;SDS011;4201;48.754;8.864;2024-02-26T01:18:09;6.60;;;3.50;;
8327;SDS011;4201;48.754;8.864;2024-02-26T01:20:35;5.03;;;3.03;;
8327;SDS011;4201;48.754;8.864;2024-02-26T01:23:01;5.63;;;3.03;;
8327;SDS011;4201;48.754;8.864;2024-02-26T01:25:29;4.60;;;2.30;;
8327;SDS011;4201;48.754;8.864;2024-02-26T01:27:55;4.70;;;2.77;;
8327;SDS011;4201;48.754;8.864;2024-02-26T01:30:21;4.47;;;2.93;;
8327;SDS011;4201;48.754;8.864;2024-02-26T01:32:48;5.03;;;3.27;;
8327;SDS011;4201;48.754;8.864;2024-02-26T01:35:14;6.30;;;3.43;;
8327;SDS011;4201;48.754;8.864;2024-02-26T01:37:40;6.00;;;3.53;;
8327;SDS011;4201;48.754;8.864;2024-02-26T01:40:07;7.80;;;3.80;;
8327;SDS011;4201;48.754;8.864;2024-02-26T01:42:36;6.73;;;4.10;;
8327;SDS011;4201;48.754;8.864;2024-02-26T01:45:04;6.13;;;3.73;;
8327;SDS011;4201;48.754;8.864;2024-02-26T01:47:32;6.17;;;3.60;;
8327;SDS011;4201;48.754;8.864;2024-02-26T01:49:58;7.97;;;4.60;;
8327;SDS011;4201;48.754;8.864;2024-02-26T01:52:24;6.77;;;4.73;;
8327;SDS011;4201;48.754;8.864;2024-02-26T01:54:51;9.43;;;3.77;;
8327;SDS011;4201;48.754;8.864;2024-02-26T01:57:17;4.97;;;3.40;;
8327;SDS011;4201;48.754;8.864;2024-02-26T01:59:45;4.27;;;2.53;;
8327;SDS011;4201;48.754;8.864;2024-02-26T02:02:11;4.63;;;2.90;;
8327;SDS011;4201;48.754;8.864;2024-02-26T02:04:38;5.53;;;3.33;;
8327;SDS011;4201;48.754;8.864;2024-02-26T02:07:05;6.30;;;3.50;;
8327;SDS011;4201;48.754;8.864;2024-02-26T02:09:31;5.33;;;2.93;;
8327;SDS011;4201;48.754;8.864;2024-02-26T02:11:58;4.50;;;1.80;;
8327;SDS011;4201;48.754;8.864;2024-02-26T02:14:25;3.70;;;2.03;;
8327;SDS011;4201;48.754;8.864;2024-02-26T02:16:52;3.10;;;2.10;;
8327;SDS011;4201;48.754;8.864;2024-02-26T02:19:18;6.10;;;2.83;;
8327;SDS011;4201;48.754;8.864;2024-02-26T02:21:46;5.50;;;2.30;;
8327;SDS011;4201;48.754;8.864;2024-02-26T02:24:12;4.40;;;2.20;;
8327;SDS011;4201;48.754;8.864;2024-02-26T02:26:38;3.90;;;1.60;;
8327;SDS011;4201;48.754;8.864;2024-02-26T02:29:05;3.90;;;2.43;;
8327;SDS011;4201;48.754;8.864;2024-02-26T02:31:32;3.13;;;1.90;;
8327;SDS011;4201;48.754;8.864;2024-02-26T02:33:58;3.00;;;2.00;;
8327;SDS011;4201;48.754;8.864;2024-02-26T02:36:25;3.57;;;1.77;;
8327;SDS011;4201;48.754;8.864;2024-02-26T02:38:53;3.00;;;1.60;;
8327;SDS011;4201;48.754;8.864;2024-02-26T02:41:19;3.43;;;1.63;;
8327;SDS011;4201;48.754;8.864;2024-02-26T02:43:45;3.33;;;1.60;;
8327;SDS011;4201;48.754;8.864;2024-02-26T02:46:12;3.23;;;1.83;;
8327;SDS011;4201;48.754;8.864;2024-02-26T02:48:38;2.80;;;1.50;;
8327;SDS011;4201;48.754;8.864;2024-02-26T02:51:04;3.03;;;1.57;;
8327;SDS011;4201;48.754;8.864;2024-02-26T02:53:31;2.60;;;1.40;;
8327;SDS011;4201;48.754;8.864;2024-02-26T02:55:58;3.23;;;1.60;;
8327;SDS011;4201;48.754;8.864;2024-02-26T02:58:24;2.77;;;1.30;;
8327;SDS011;4201;48.754;8.864;2024-02-26T03:00:51;3.00;;;1.53;;
8327;SDS011;4201;48.754;8.864;2024-02-26T03:03:17;3.63;;;1.83;;
8327;SDS011;4201;48.754;8.864;2024-02-26T03:05:43;4.07;;;1.80;;
8327;SDS011;4201;48.754;8.864;2024-02-26T03:08:09;3.50;;;1.60;;
8327;SDS011;4201;48.754;8.864;2024-02-26T03:10:36;7.00;;;1.97;;
8327;SDS011;4201;48.754;8.864;2024-02-26T03:13:03;3.40;;;1.50;;
8327;SDS011;4201;48.754;8.864;2024-02-26T03:15:30;2.40;;;1.50;;
8327;SDS011;4201;48.754;8.864;2024-02-26T03:17:56;3.03;;;1.80;;
8327;SDS011;4201;48.754;8.864;2024-02-26T03:20:22;2.70;;;1.23;;
8327;SDS011;4201;48.754;8.864;2024-02-26T03:22:48;2.63;;;1.50;;
8327;SDS011;4201;48.754;8.864;2024-02-26T03:25:14;2.47;;;1.13;;
8327;SDS011;4201;48.754;8.864;2024-02-26T03:27:41;2.80;;;1.30;;
8327;SDS011;4201;48.754;8.864;2024-02-26T03:30:09;2.77;;;1.30;;
8327;SDS011;4201;48.754;8.864;2024-02-26T03:32:35;1.63;;;0.90;;
8327;SDS011;4201;48.754;8.864;2024-02-26T03:35:02;2.57;;;1.20;;
8327;SDS011;4201;48.754;8.864;2024-02-26T03:37:28;2.60;;;1.60;;
8327;SDS011;4201;48.754;8.864;2024-02-26T03:39:54;2.30;;;1.20;;
8327;SDS011;4201;48.754;8.864;2024-02-26T03:42:22;3.40;;;1.30;;
8327;SDS011;4201;48.754;8.864;2024-02-26T03:44:48;2.63;;;1.20;;
8327;SDS011;4201;48.754;8.864;2024-02-26T03:47:16;2.90;;;1.60;;
8327;SDS011;4201;48.754;8.864;2024-02-26T03:49:42;2.20;;;1.07;;
8327;SDS011;4201;48.754;8.864;2024-02-26T03:52:08;2.30;;;1.20;;
8327;SDS011;4201;48.754;8.864;2024-02-26T03:54:34;2.90;;;1.23;;
8327;SDS011;4201;48.754;8.864;2024-02-26T03:57:01;2.20;;;1.33;;
8327;SDS011;4201;48.754;8.864;2024-02-26T03:59:27;3.97;;;1.60;;
8327;SDS011;4201;48.754;8.864;2024-02-26T04:01:53;2.10;;;1.00;;
8327;SDS011;4201;48.754;8.864;2024-02-26T04:04:21;2.60;;;1.23;;
8327;SDS011;4201;48.754;8.864;2024-02-26T04:06:47;2.23;;;1.00;;
8327;SDS011;4201;48.754;8.864;2024-02-26T04:09:13;2.20;;;1.13;;
8327;SDS011;4201;48.754;8.864;2024-02-26T04:11:39;1.97;;;1.20;;
8327;SDS011;4201;48.754;8.864;2024-02-26T04:14:06;2.57;;;1.27;;
8327;SDS011;4201;48.754;8.864;2024-02-26T04:16:33;2.33;;;1.30;;
8327;SDS011;4201;48.754;8.864;2024-02-26T04:18:59;3.10;;;1.57;;
8327;SDS011;4201;48.754;8.864;2024-02-26T04:21:27;2.67;;;1.40;;
8327;SDS011;4201;48.754;8.864;2024-02-26T04:23:53;2.47;;;1.10;;
8327;SDS011;4201;48.754;8.864;2024-02-26T04:26:20;1.97;;;1.00;;
8327;SDS011;4201;48.754;8.864;2024-02-26T04:28:46;2.27;;;1.27;;
8327;SDS011;4201;48.754;8.864;2024-02-26T04:31:12;3.30;;;1.87;;
8327;SDS011;4201;48.754;8.864;2024-02-26T04:33:38;2.73;;;1.57;;
8327;SDS011;4201;48.754;8.864;2024-02-26T04:36:11;2.40;;;1.43;;
8327;SDS011;4201;48.754;8.864;2024-02-26T04:38:39;2.57;;;1.40;;
8327;SDS011;4201;48.754;8.864;2024-02-26T04:41:05;3.80;;;1.20;;
8327;SDS011;4201;48.754;8.864;2024-02-26T04:43:31;4.37;;;1.60;;
8327;SDS011;4201;48.754;8.864;2024-02-26T04:45:57;4.60;;;1.87;;
8327;SDS011;4201;48.754;8.864;2024-02-26T04:48:24;3.57;;;1.20;;
8327;SDS011;4201;48.754;8.864;2024-02-26T04:50:50;2.63;;;1.53;;
8327;SDS011;4201;48.754;8.864;2024-02-26T04:53:16;2.30;;;1.50;;
8327;SDS011;4201;48.754;8.864;2024-02-26T04:55:44;3.13;;;1.60;;
8327;SDS011;4201;48.754;8.864;2024-02-26T04:58:10;3.37;;;1.40;;
8327;SDS011;4201;48.754;8.864;2024-02-26T05:00:37;3.30;;;1.30;;
8327;SDS011;4201;48.754;8.864;2024-02-26T05:03:03;2.43;;;1.37;;
8327;SDS011;4201;48.754;8.864;2024-02-26T05:05:29;2.40;;;1.47;;
8327;SDS011;4201;48.754;8.864;2024-02-26T05:07:56;5.30;;;2.07;;
8327;SDS011;4201;48.754;8.864;2024-02-26T05:10:22;5.10;;;2.70;;
8327;SDS011;4201;48.754;8.864;2024-02-26T05:12:49;3.20;;;2.00;;
8327;SDS011;4201;48.754;8.864;2024-02-26T05:15:16;4.70;;;1.73;;
8327;SDS011;4201;48.754;8.864;2024-02-26T05:17:43;3.20;;;1.77;;
8327;SDS011;4201;48.754;8.864;2024-02-26T05:20:09;2.30;;;1.13;;
8327;SDS011;4201;48.754;8.864;2024-02-26T05:22:36;2.50;;;1.50;;
8327;SDS011;4201;48.754;8.864;2024-02-26T05:25:03;6.60;;;1.50;;
8327;SDS011;4201;48.754;8.864;2024-02-26T05:27:29;2.60;;;1.33;;
8327;SDS011;4201;48.754;8.864;2024-02-26T05:29:57;2.87;;;1.50;;
8327;SDS011;4201;48.754;8.864;2024-02-26T05:32:24;3.33;;;1.73;;
8327;SDS011;4201;48.754;8.864;2024-02-26T05:34:53;3.10;;;1.60;;
8327;SDS011;4201;48.754;8.864;2024-02-26T05:37:19;3.50;;;1.40;;
8327;SDS011;4201;48.754;8.864;2024-02-26T05:39:46;3.60;;;1.60;;
8327;SDS011;4201;48.754;8.864;2024-02-26T05:42:12;2.90;;;1.43;;
8327;SDS011;4201;48.754;8.864;2024-02-26T05:44:38;3.37;;;1.20;;
8327;SDS011;4201;48.754;8.864;2024-02-26T05:47:06;2.80;;;1.30;;
8327;SDS011;4201;48.754;8.864;2024-02-26T05:49:32;2.00;;;1.23;;
8327;SDS011;4201;48.754;8.864;2024-02-26T05:51:58;2.80;;;1.50;;
8327;SDS011;4201;48.754;8.864;2024-02-26T05:54:24;2.37;;;1.30;;
8327;SDS011;4201;48.754;8.864;2024-02-26T05:56:51;5.17;;;1.77;;
8327;SDS011;4201;48.754;8.864;2024-02-26T05:59:17;9.63;;;2.40;;
8327;SDS011;4201;48.754;8.864;2024-02-26T06:01:43;5.43;;;3.20;;
8327;SDS011;4201;48.754;8.864;2024-02-26T06:04:11;5.57;;;2.33;;
8327;SDS011;4201;48.754;8.864;2024-02-26T06:09:04;57.20;;;19.80;;
8327;SDS011;4201;48.754;8.864;2024-02-26T06:11:31;21.87;;;7.53;;
8327;SDS011;4201;48.754;8.864;2024-02-26T06:13:57;20.03;;;7.60;;
8327;SDS011;4201;48.754;8.864;2024-02-26T06:16:23;7.33;;;3.60;;
8327;SDS011;4201;48.754;8.864;2024-02-26T06:18:49;6.10;;;2.67;;
8327;SDS011;4201;48.754;8.864;2024-02-26T06:21:17;13.80;;;2.60;;
8327;SDS011;4201;48.754;8.864;2024-02-26T06:23:43;5.27;;;1.97;;
8327;SDS011;4201;48.754;8.864;2024-02-26T06:26:09;5.10;;;2.53;;
8327;SDS011;4201;48.754;8.864;2024-02-26T06:28:36;4.57;;;2.33;;
8327;SDS011;4201;48.754;8.864;2024-02-26T06:31:05;4.70;;;2.63;;
8327;SDS011;4201;48.754;8.864;2024-02-26T06:33:31;5.20;;;2.10;;
8327;SDS011;4201;48.754;8.864;2024-02-26T06:35:58;4.20;;;2.20;;
8327;SDS011;4201;48.754;8.864;2024-02-26T06:38:26;3.80;;;2.17;;
8327;SDS011;4201;48.754;8.864;2024-02-26T06:40:52;4.20;;;2.50;;
8327;SDS011;4201;48.754;8.864;2024-02-26T06:43:19;3.67;;;2.10;;
8327;SDS011;4201;48.754;8.864;2024-02-26T06:45:45;4.00;;;2.30;;
8327;SDS011;4201;48.754;8.864;2024-02-26T06:48:11;3.50;;;1.90;;
8327;SDS011;4201;48.754;8.864;2024-02-26T06:50:37;2.87;;;1.60;;
8327;SDS011;4201;48.754;8.864;2024-02-26T06:53:04;3.07;;;1.87;;
8327;SDS011;4201;48.754;8.864;2024-02-26T06:55:33;2.83;;;1.67;;
8327;SDS011;4201;48.754;8.864;2024-02-26T06:57:58;2.70;;;1.60;;
8327;SDS011;4201;48.754;8.864;2024-02-26T07:00:25;3.97;;;2.23;;
8327;SDS011;4201;48.754;8.864;2024-02-26T07:02:51;5.85;;;2.50;;
8327;SDS011;4201;48.754;8.864;2024-02-26T07:05:17;2.90;;;1.77;;
8327;SDS011;4201;48.754;8.864;2024-02-26T07:07:44;5.10;;;2.23;;
8327;SDS011;4201;48.754;8.864;2024-02-26T07:10:10;4.10;;;2.53;;
8327;SDS011;4201;48.754;8.864;2024-02-26T07:12:38;3.57;;;2.23;;
8327;SDS011;4201;48.754;8.864;2024-02-26T07:15:05;4.60;;;2.27;;
8327;SDS011;4201;48.754;8.864;2024-02-26T07:17:33;2.80;;;1.90;;
8327;SDS011;4201;48.754;8.864;2024-02-26T07:19:59;3.83;;;2.10;;
8327;SDS011;4201;48.754;8.864;2024-02-26T07:22:26;4.33;;;1.40;;
8327;SDS011;4201;48.754;8.864;2024-02-26T07:24:53;4.83;;;1.60;;
8327;SDS011;4201;48.754;8.864;2024-02-26T07:27:19;6.87;;;1.70;;
8327;SDS011;4201;48.754;8.864;2024-02-26T07:29:47;3.00;;;1.70;;
8327;SDS011;4201;48.754;8.864;2024-02-26T07:32:13;3.83;;;1.70;;
8327;SDS011;4201;48.754;8.864;2024-02-26T07:34:40;4.70;;;1.30;;
8327;SDS011;4201;48.754;8.864;2024-02-26T07:37:09;3.47;;;1.63;;
8327;SDS011;4201;48.754;8.864;2024-02-26T07:39:35;4.20;;;1.43;;
8327;SDS011;4201;48.754;8.864;2024-02-26T07:42:02;3.13;;;1.63;;
8327;SDS011;4201;48.754;8.864;2024-02-26T07:44:28;3.80;;;2.37;;
8327;SDS011;4201;48.754;8.864;2024-02-26T07:46:56;5.50;;;2.87;;
8327;SDS011;4201;48.754;8.864;2024-02-26T07:49:22;4.53;;;2.77;;
8327;SDS011;4201;48.754;8.864;2024-02-26T07:51:48;5.10;;;3.07;;
8327;SDS011;4201;48.754;8.864;2024-02-26T07:54:14;6.70;;;4.47;;
8327;SDS011;4201;48.754;8.864;2024-02-26T07:56:41;8.60;;;5.70;;
8327;SDS011;4201;48.754;8.864;2024-02-26T07:59:07;8.77;;;5.40;;
8327;SDS011;4201;48.754;8.864;2024-02-26T08:01:34;7.33;;;5.23;;
8327;SDS011;4201;48.754;8.864;2024-02-26T08:04:05;7.63;;;5.00;;
8327;SDS011;4201;48.754;8.864;2024-02-26T08:06:31;7.87;;;4.40;;
8327;SDS011;4201;48.754;8.864;2024-02-26T08:08:57;7.90;;;3.80;;
8327;SDS011;4201;48.754;8.864;2024-02-26T08:11:23;6.73;;;3.27;;
8327;SDS011;4201;48.754;8.864;2024-02-26T08:13:49;6.10;;;3.40;;
8327;SDS011;4201;48.754;8.864;2024-02-26T08:16:16;8.27;;;3.30;;
8327;SDS011;4201;48.754;8.864;2024-02-26T08:18:42;6.40;;;3.50;;
8327;SDS011;4201;48.754;8.864;2024-02-26T08:21:10;6.40;;;3.20;;
8327;SDS011;4201;48.754;8.864;2024-02-26T08:23:37;6.77;;;3.57;;
8327;SDS011;4201;48.754;8.864;2024-02-26T08:26:03;6.13;;;3.30;;
8327;SDS011;4201;48.754;8.864;2024-02-26T08:28:32;5.00;;;2.80;;
8327;SDS011;4201;48.754;8.864;2024-02-26T08:30:58;10.00;;;5.57;;
8327;SDS011;4201;48.754;8.864;2024-02-26T08:33:24;9.40;;;4.80;;
8327;SDS011;4201;48.754;8.864;2024-02-26T08:35:50;12.10;;;6.90;;
8327;SDS011;4201;48.754;8.864;2024-02-26T08:38:18;7.80;;;5.47;;
8327;SDS011;4201;48.754;8.864;2024-02-26T08:40:44;10.80;;;4.00;;
8327;SDS011;4201;48.754;8.864;2024-02-26T08:43:10;5.83;;;3.20;;
8327;SDS011;4201;48.754;8.864;2024-02-26T08:45:37;5.90;;;3.60;;
8327;SDS011;4201;48.754;8.864;2024-02-26T08:48:03;4.90;;;3.30;;
8327;SDS011;4201;48.754;8.864;2024-02-26T08:50:29;9.43;;;4.57;;
8327;SDS011;4201;48.754;8.864;2024-02-26T08:52:56;7.17;;;4.33;;
8327;SDS011;4201;48.754;8.864;2024-02-26T08:55:23;7.80;;;4.67;;
8327;SDS011;4201;48.754;8.864;2024-02-26T08:57:50;5.80;;;3.73;;
8327;SDS011;4201;48.754;8.864;2024-02-26T09:00:16;5.00;;;3.70;;
8327;SDS011;4201;48.754;8.864;2024-02-26T09:02:45;4.50;;;3.17;;
8327;SDS011;4201;48.754;8.864;2024-02-26T09:05:11;5.63;;;3.63;;
8327;SDS011;4201;48.754;8.864;2024-02-26T09:07:37;10.40;;;4.87;;
8327;SDS011;4201;48.754;8.864;2024-02-26T09:10:04;5.10;;;3.83;;
8327;SDS011;4201;48.754;8.864;2024-02-26T09:12:32;5.87;;;3.70;;
8327;SDS011;4201;48.754;8.864;2024-02-26T09:14:58;7.80;;;4.70;;
8327;SDS011;4201;48.754;8.864;2024-02-26T09:17:24;8.97;;;5.73;;
8327;SDS011;4201;48.754;8.864;2024-02-26T09:19:51;7.50;;;5.50;;
8327;SDS011;4201;48.754;8.864;2024-02-26T09:22:17;9.97;;;4.03;;
8327;SDS011;4201;48.754;8.864;2024-02-26T09:24:43;12.00;;;4.67;;
8327;SDS011;4201;48.754;8.864;2024-02-26T09:27:09;7.00;;;3.70;;
8327;SDS011;4201;48.754;8.864;2024-02-26T09:29:37;10.53;;;4.60;;
8327;SDS011;4201;48.754;8.864;2024-02-26T09:32:03;6.47;;;3.40;;
8327;SDS011;4201;48.754;8.864;2024-02-26T09:34:30;14.33;;;6.60;;
8327;SDS011;4201;48.754;8.864;2024-02-26T09:36:56;13.10;;;5.93;;
8327;SDS011;4201;48.754;8.864;2024-02-26T09:39:22;4.30;;;2.63;;
8327;SDS011;4201;48.754;8.864;2024-02-26T09:41:48;4.00;;;2.57;;
8327;SDS011;4201;48.754;8.864;2024-02-26T09:44:15;6.20;;;3.10;;
8327;SDS011;4201;48.754;8.864;2024-02-26T09:46:45;10.70;;;5.03;;
8327;SDS011;4201;48.754;8.864;2024-02-26T09:49:13;11.10;;;4.43;;
8327;SDS011;4201;48.754;8.864;2024-02-26T09:51:41;8.10;;;3.87;;
8327;SDS011;4201;48.754;8.864;2024-02-26T09:54:07;6.70;;;2.97;;
8327;SDS011;4201;48.754;8.864;2024-02-26T09:56:35;10.30;;;4.90;;
8327;SDS011;4201;48.754;8.864;2024-02-26T09:59:02;7.70;;;4.50;;
8327;SDS011;4201;48.754;8.864;2024-02-26T10:01:29;6.17;;;3.43;;
8327;SDS011;4201;48.754;8.864;2024-02-26T10:03:59;5.20;;;2.43;;
8327;SDS011;4201;48.754;8.864;2024-02-26T10:06:26;5.10;;;2.60;;
8327;SDS011;4201;48.754;8.864;2024-02-26T10:08:52;5.30;;;2.70;;
8327;SDS011;4201;48.754;8.864;2024-02-26T10:11:19;3.57;;;2.20;;
8327;SDS011;4201;48.754;8.864;2024-02-26T10:13:45;7.63;;;3.70;;
8327;SDS011;4201;48.754;8.864;2024-02-26T10:16:11;11.43;;;3.23;;
8327;SDS011;4201;48.754;8.864;2024-02-26T10:18:47;4.33;;;3.10;;
8327;SDS011;4201;48.754;8.864;2024-02-26T10:21:16;4.67;;;2.50;;
8327;SDS011;4201;48.754;8.864;2024-02-26T10:23:43;5.50;;;2.90;;
8327;SDS011;4201;48.754;8.864;2024-02-26T10:26:10;5.53;;;2.63;;
8327;SDS011;4201;48.754;8.864;2024-02-26T10:28:37;4.20;;;2.77;;
8327;SDS011;4201;48.754;8.864;2024-02-26T10:31:03;5.20;;;3.20;;
8327;SDS011;4201;48.754;8.864;2024-02-26T10:33:30;7.90;;;3.30;;
8327;SDS011;4201;48.754;8.864;2024-02-26T10:35:57;6.90;;;2.47;;
8327;SDS011;4201;48.754;8.864;2024-02-26T10:38:25;4.60;;;2.33;;
8327;SDS011;4201;48.754;8.864;2024-02-26T10:40:52;7.00;;;2.43;;
8327;SDS011;4201;48.754;8.864;2024-02-26T10:43:18;3.30;;;1.70;;
8327;SDS011;4201;48.754;8.864;2024-02-26T10:45:44;3.60;;;1.77;;
8327;SDS011;4201;48.754;8.864;2024-02-26T10:48:13;3.38;;;1.90;;
8327;SDS011;4201;48.754;8.864;2024-02-26T10:50:39;5.43;;;2.20;;
8327;SDS011;4201;48.754;8.864;2024-02-26T10:53:07;3.10;;;1.90;;
8327;SDS011;4201;48.754;8.864;2024-02-26T10:55:41;4.13;;;2.40;;
8327;SDS011;4201;48.754;8.864;2024-02-26T10:58:07;3.17;;;2.00;;
8327;SDS011;4201;48.754;8.864;2024-02-26T11:00:34;2.80;;;1.53;;
8327;SDS011;4201;48.754;8.864;2024-02-26T11:03:01;3.70;;;2.20;;
8327;SDS011;4201;48.754;8.864;2024-02-26T11:05:28;3.73;;;2.27;;
8327;SDS011;4201;48.754;8.864;2024-02-26T11:07:55;3.93;;;1.93;;
8327;SDS011;4201;48.754;8.864;2024-02-26T11:10:22;3.07;;;1.53;;
8327;SDS011;4201;48.754;8.864;2024-02-26T11:12:50;3.27;;;1.60;;
8327;SDS011;4201;48.754;8.864;2024-02-26T11:15:17;3.60;;;1.70;;
8327;SDS011;4201;48.754;8.864;2024-02-26T11:17:44;2.80;;;1.23;;
8327;SDS011;4201;48.754;8.864;2024-02-26T11:20:12;2.90;;;1.90;;
8327;SDS011;4201;48.754;8.864;2024-02-26T11:22:39;3.10;;;1.67;;
8327;SDS011;4201;48.754;8.864;2024-02-26T11:25:06;3.83;;;1.90;;
8327;SDS011;4201;48.754;8.864;2024-02-26T11:27:34;3.20;;;1.87;;
8327;SDS011;4201;48.754;8.864;2024-02-26T11:30:02;3.70;;;1.90;;
8327;SDS011;4201;48.754;8.864;2024-02-26T11:32:30;5.33;;;2.00;;
8327;SDS011;4201;48.754;8.864;2024-02-26T11:34:57;6.10;;;1.93;;
8327;SDS011;4201;48.754;8.864;2024-02-26T11:37:24;4.33;;;2.00;;
8327;SDS011;4201;48.754;8.864;2024-02-26T11:39:51;3.27;;;1.60;;
8327;SDS011;4201;48.754;8.864;2024-02-26T11:42:17;3.93;;;1.73;;
8327;SDS011;4201;48.754;8.864;2024-02-26T11:44:48;3.63;;;2.00;;
8327;SDS011;4201;48.754;8.864;2024-02-26T11:47:18;4.83;;;2.40;;
8327;SDS011;4201;48.754;8.864;2024-02-26T11:49:45;3.23;;;2.20;;
8327;SDS011;4201;48.754;8.864;2024-02-26T11:52:12;3.90;;;1.80;;
8327;SDS011;4201;48.754;8.864;2024-02-26T11:54:39;2.70;;;1.40;;
8327;SDS011;4201;48.754;8.864;2024-02-26T11:57:19;4.43;;;1.80;;
8327;SDS011;4201;48.754;8.864;2024-02-26T11:59:45;2.70;;;1.57;;
8327;SDS011;4201;48.754;8.864;2024-02-26T12:02:11;4.87;;;2.67;;
8327;SDS011;4201;48.754;8.864;2024-02-26T12:04:40;2.27;;;1.10;;
8327;SDS011;4201;48.754;8.864;2024-02-26T12:07:06;2.70;;;1.27;;
8327;SDS011;4201;48.754;8.864;2024-02-26T12:09:33;2.70;;;1.33;;
8327;SDS011;4201;48.754;8.864;2024-02-26T12:12:00;3.10;;;1.50;;
8327;SDS011;4201;48.754;8.864;2024-02-26T12:14:27;4.97;;;1.93;;
8327;SDS011;4201;48.754;8.864;2024-02-26T12:16:53;6.90;;;2.30;;
8327;SDS011;4201;48.754;8.864;2024-02-26T12:19:21;5.90;;;1.30;;
8327;SDS011;4201;48.754;8.864;2024-02-26T12:21:51;3.53;;;1.27;;
8327;SDS011;4201;48.754;8.864;2024-02-26T12:24:17;4.03;;;1.43;;
8327;SDS011;4201;48.754;8.864;2024-02-26T12:26:45;6.10;;;2.00;;
8327;SDS011;4201;48.754;8.864;2024-02-26T12:29:11;3.50;;;2.00;;
8327;SDS011;4201;48.754;8.864;2024-02-26T12:31:38;7.13;;;2.60;;
8327;SDS011;4201;48.754;8.864;2024-02-26T12:34:05;4.10;;;1.20;;
8327;SDS011;4201;48.754;8.864;2024-02-26T12:36:32;3.40;;;1.83;;
8327;SDS011;4201;48.754;8.864;2024-02-26T12:39:01;3.33;;;2.03;;
8327;SDS011;4201;48.754;8.864;2024-02-26T12:41:30;2.97;;;1.30;;
8327;SDS011;4201;48.754;8.864;2024-02-26T12:43:57;3.00;;;1.30;;
8327;SDS011;4201;48.754;8.864;2024-02-26T12:46:23;4.63;;;2.30;;
8327;SDS011;4201;48.754;8.864;2024-02-26T12:48:49;3.53;;;2.10;;
8327;SDS011;4201;48.754;8.864;2024-02-26T12:51:16;6.60;;;2.90;;
8327;SDS011;4201;48.754;8.864;2024-02-26T12:53:43;11.97;;;5.43;;
8327;SDS011;4201;48.754;8.864;2024-02-26T12:56:11;6.37;;;3.90;;
8327;SDS011;4201;48.754;8.864;2024-02-26T12:58:38;5.63;;;2.90;;
8327;SDS011;4201;48.754;8.864;2024-02-26T13:01:05;2.67;;;1.40;;
8327;SDS011;4201;48.754;8.864;2024-02-26T13:03:32;2.87;;;1.50;;
8327;SDS011;4201;48.754;8.864;2024-02-26T13:05:59;4.17;;;1.60;;
8327;SDS011;4201;48.754;8.864;2024-02-26T13:08:25;4.67;;;2.10;;
8327;SDS011;4201;48.754;8.864;2024-02-26T13:10:52;5.00;;;1.60;;
8327;SDS011;4201;48.754;8.864;2024-02-26T13:13:19;4.30;;;1.67;;
8327;SDS011;4201;48.754;8.864;2024-02-26T13:15:45;4.67;;;1.70;;
8327;SDS011;4201;48.754;8.864;2024-02-26T13:18:12;3.63;;;2.20;;
8327;SDS011;4201;48.754;8.864;2024-02-26T13:20:39;3.90;;;2.27;;
8327;SDS011;4201;48.754;8.864;2024-02-26T13:23:06;3.10;;;1.57;;
8327;SDS011;4201;48.754;8.864;2024-02-26T13:25:32;4.50;;;1.60;;
8327;SDS011;4201;48.754;8.864;2024-02-26T13:28:06;4.20;;;1.83;;
8327;SDS011;4201;48.754;8.864;2024-02-26T13:30:33;6.93;;;2.13;;
8327;SDS011;4201;48.754;8.864;2024-02-26T13:33:06;5.60;;;2.30;;
8327;SDS011;4201;48.754;8.864;2024-02-26T13:35:33;3.30;;;2.33;;
8327;SDS011;4201;48.754;8.864;2024-02-26T13:38:00;4.00;;;2.03;;
8327;SDS011;4201;48.754;8.864;2024-02-26T13:40:26;2.30;;;1.40;;
8327;SDS011;4201;48.754;8.864;2024-02-26T13:42:53;4.67;;;1.93;;
8327;SDS011;4201;48.754;8.864;2024-02-26T13:45:19;4.77;;;2.40;;
8327;SDS011;4201;48.754;8.864;2024-02-26T13:47:46;3.53;;;1.80;;
8327;SDS011;4201;48.754;8.864;2024-02-26T13:50:13;3.67;;;1.77;;
8327;SDS011;4201;48.754;8.864;2024-02-26T13:52:39;3.57;;;1.63;;
8327;SDS011;4201;48.754;8.864;2024-02-26T13:55:06;3.23;;;1.30;;
8327;SDS011;4201;48.754;8.864;2024-02-26T13:57:32;3.20;;;1.53;;
8327;SDS011;4201;48.754;8.864;2024-02-26T13:59:59;2.73;;;1.63;;
8327;SDS011;4201;48.754;8.864;2024-02-26T14:02:25;2.70;;;1.37;;
8327;SDS011;4201;48.754;8.864;2024-02-26T14:04:52;3.53;;;1.53;;
8327;SDS011;4201;48.754;8.864;2024-02-26T14:07:19;11.20;;;1.40;;
8327;SDS011;4201;48.754;8.864;2024-02-26T14:09:45;4.00;;;1.63;;
8327;SDS011;4201;48.754;8.864;2024-02-26T14:12:11;3.10;;;1.30;;
8327;SDS011;4201;48.754;8.864;2024-02-26T14:14:38;2.20;;;1.33;;
8327;SDS011;4201;48.754;8.864;2024-02-26T14:17:05;2.60;;;1.13;;
8327;SDS011;4201;48.754;8.864;2024-02-26T14:19:32;3.70;;;1.30;;
8327;SDS011;4201;48.754;8.864;2024-02-26T14:22:00;2.90;;;1.20;;
8327;SDS011;4201;48.754;8.864;2024-02-26T14:24:26;4.30;;;1.70;;
8327;SDS011;4201;48.754;8.864;2024-02-26T14:26:52;2.33;;;1.10;;
8327;SDS011;4201;48.754;8.864;2024-02-26T14:29:18;3.13;;;1.60;;
8327;SDS011;4201;48.754;8.864;2024-02-26T14:31:45;2.50;;;1.20;;
8327;SDS011;4201;48.754;8.864;2024-02-26T14:34:11;2.03;;;0.97;;
8327;SDS011;4201;48.754;8.864;2024-02-26T14:36:37;2.30;;;1.33;;
8327;SDS011;4201;48.754;8.864;2024-02-26T14:39:05;3.17;;;1.40;;
8327;SDS011;4201;48.754;8.864;2024-02-26T14:41:31;2.60;;;1.60;;
8327;SDS011;4201;48.754;8.864;2024-02-26T14:43:57;2.80;;;1.60;;
8327;SDS011;4201;48.754;8.864;2024-02-26T14:46:24;3.27;;;1.37;;
8327;SDS011;4201;48.754;8.864;2024-02-26T14:48:50;5.90;;;2.03;;
8327;SDS011;4201;48.754;8.864;2024-02-26T14:51:16;3.37;;;1.60;;
8327;SDS011;4201;48.754;8.864;2024-02-26T14:53:43;4.10;;;2.10;;
8327;SDS011;4201;48.754;8.864;2024-02-26T14:56:10;2.93;;;1.40;;
8327;SDS011;4201;48.754;8.864;2024-02-26T14:58:36;3.23;;;1.63;;
8327;SDS011;4201;48.754;8.864;2024-02-26T15:01:03;3.60;;;1.53;;
8327;SDS011;4201;48.754;8.864;2024-02-26T15:03:30;2.60;;;1.13;;
8327;SDS011;4201;48.754;8.864;2024-02-26T15:05:56;3.77;;;1.70;;
8327;SDS011;4201;48.754;8.864;2024-02-26T15:08:22;3.40;;;1.20;;
8327;SDS011;4201;48.754;8.864;2024-02-26T15:10:48;2.90;;;1.40;;
8327;SDS011;4201;48.754;8.864;2024-02-26T15:13:16;3.40;;;1.10;;